sensor_id;sensor_type;location;lat;lon;timestamp;P1;durP1;ratioP1;P2;durP2;ratioP2
13584;SDS011;6863;48.402;9.994;2022-10-12T00:01:05;23.73;;;19.53;;
13584;SDS011;6863;48.402;9.994;2022-10-12T00:03:31;28.17;;;20.17;;
13584;SDS011;6863;48.402;9.994;2022-10-12T00:06:05;21.23;;;18.33;;
13584;SDS011;6863;48.402;9.994;2022-10-12T00:08:35;22.07;;;18.33;;
13584;SDS011;6863;48.402;9.994;2022-10-12T00:11:02;21.63;;;18.57;;
13584;SDS011;6863;48.402;9.994;2022-10-12T00:13:29;22.60;;;18.40;;
13584;SDS011;6863;48.402;9.994;2022-10-12T00:15:55;25.17;;;19.03;;
13584;SDS011;6863;48.402;9.994;2022-10-12T00:18:20;22.47;;;19.33;;
13584;SDS011;6863;48.402;9.994;2022-10-12T00:20:46;21.90;;;18.53;;
13584;SDS011;6863;48.402;9.994;2022-10-12T00:23:12;24.70;;;19.70;;
13584;SDS011;6863;48.402;9.994;2022-10-12T00:25:38;22.33;;;18.13;;
13584;SDS011;6863;48.402;9.994;2022-10-12T00:28:05;23.67;;;19.03;;
13584;SDS011;6863;48.402;9.994;2022-10-12T00:30:31;22.87;;;18.90;;
13584;SDS011;6863;48.402;9.994;2022-10-12T00:32:57;24.77;;;20.37;;
13584;SDS011;6863;48.402;9.994;2022-10-12T00:35:23;23.67;;;19.27;;
13584;SDS011;6863;48.402;9.994;2022-10-12T00:37:54;24.93;;;18.90;;
13584;SDS011;6863;48.402;9.994;2022-10-12T00:40:21;22.40;;;19.40;;
13584;SDS011;6863;48.402;9.994;2022-10-12T00:42:47;23.43;;;19.50;;
13584;SDS011;6863;48.402;9.994;2022-10-12T00:45:13;22.77;;;18.87;;
13584;SDS011;6863;48.402;9.994;2022-10-12T00:47:40;29.17;;;19.43;;
13584;SDS011;6863;48.402;9.994;2022-10-12T00:50:15;25.43;;;20.67;;
13584;SDS011;6863;48.402;9.994;2022-10-12T00:55:19;23.27;;;19.93;;
13584;SDS011;6863;48.402;9.994;2022-10-12T00:57:47;27.27;;;20.50;;
13584;SDS011;6863;48.402;9.994;2022-10-12T01:00:14;30.23;;;20.50;;
13584;SDS011;6863;48.402;9.994;2022-10-12T01:02:41;22.00;;;19.60;;
13584;SDS011;6863;48.402;9.994;2022-10-12T01:05:07;26.77;;;19.73;;
13584;SDS011;6863;48.402;9.994;2022-10-12T01:07:35;22.53;;;19.27;;
13584;SDS011;6863;48.402;9.994;2022-10-12T01:10:01;23.73;;;18.97;;
13584;SDS011;6863;48.402;9.994;2022-10-12T01:12:28;22.93;;;19.30;;
13584;SDS011;6863;48.402;9.994;2022-10-12T01:14:54;24.67;;;20.77;;
13584;SDS011;6863;48.402;9.994;2022-10-12T01:20:33;27.90;;;20.20;;
13584;SDS011;6863;48.402;9.994;2022-10-12T01:26:02;26.23;;;19.50;;
13584;SDS011;6863;48.402;9.994;2022-10-12T01:31:29;24.63;;;20.30;;
13584;SDS011;6863;48.402;9.994;2022-10-12T01:34:06;23.40;;;19.97;;
13584;SDS011;6863;48.402;9.994;2022-10-12T01:36:38;28.93;;;21.23;;
13584;SDS011;6863;48.402;9.994;2022-10-12T01:39:23;26.53;;;22.17;;
13584;SDS011;6863;48.402;9.994;2022-10-12T01:41:59;28.47;;;21.00;;
13584;SDS011;6863;48.402;9.994;2022-10-12T01:44:30;30.17;;;22.60;;
13584;SDS011;6863;48.402;9.994;2022-10-12T01:46:56;26.17;;;21.10;;
13584;SDS011;6863;48.402;9.994;2022-10-12T01:49:24;28.03;;;20.17;;
13584;SDS011;6863;48.402;9.994;2022-10-12T01:54:41;27.63;;;23.07;;
13584;SDS011;6863;48.402;9.994;2022-10-12T02:00:10;27.83;;;22.30;;
13584;SDS011;6863;48.402;9.994;2022-10-12T02:02:43;29.37;;;21.83;;
13584;SDS011;6863;48.402;9.994;2022-10-12T02:05:21;32.20;;;22.50;;
13584;SDS011;6863;48.402;9.994;2022-10-12T02:10:26;24.97;;;20.07;;
13584;SDS011;6863;48.402;9.994;2022-10-12T02:12:57;26.10;;;20.60;;
13584;SDS011;6863;48.402;9.994;2022-10-12T02:15:26;26.03;;;21.53;;
13584;SDS011;6863;48.402;9.994;2022-10-12T02:17:54;24.70;;;20.53;;
13584;SDS011;6863;48.402;9.994;2022-10-12T02:20:21;28.10;;;22.97;;
13584;SDS011;6863;48.402;9.994;2022-10-12T02:22:49;29.17;;;22.73;;
13584;SDS011;6863;48.402;9.994;2022-10-12T02:25:17;25.63;;;21.47;;
13584;SDS011;6863;48.402;9.994;2022-10-12T02:27:47;28.83;;;21.17;;
13584;SDS011;6863;48.402;9.994;2022-10-12T02:30:18;26.20;;;21.00;;
13584;SDS011;6863;48.402;9.994;2022-10-12T02:38:03;30.40;;;21.70;;
13584;SDS011;6863;48.402;9.994;2022-10-12T02:40:37;28.37;;;23.33;;
13584;SDS011;6863;48.402;9.994;2022-10-12T02:43:22;28.40;;;23.73;;
13584;SDS011;6863;48.402;9.994;2022-10-12T02:45:53;27.33;;;21.73;;
13584;SDS011;6863;48.402;9.994;2022-10-12T02:48:21;26.47;;;21.90;;
13584;SDS011;6863;48.402;9.994;2022-10-12T02:50:49;29.87;;;21.93;;
13584;SDS011;6863;48.402;9.994;2022-10-12T02:53:19;31.80;;;22.97;;
13584;SDS011;6863;48.402;9.994;2022-10-12T02:55:53;28.60;;;22.33;;
13584;SDS011;6863;48.402;9.994;2022-10-12T02:58:23;34.20;;;24.77;;
13584;SDS011;6863;48.402;9.994;2022-10-12T03:00:49;32.67;;;23.37;;
13584;SDS011;6863;48.402;9.994;2022-10-12T03:03:15;30.10;;;22.87;;
13584;SDS011;6863;48.402;9.994;2022-10-12T03:05:41;32.20;;;22.77;;
13584;SDS011;6863;48.402;9.994;2022-10-12T03:08:06;31.03;;;21.80;;
13584;SDS011;6863;48.402;9.994;2022-10-12T03:10:32;31.37;;;23.97;;
13584;SDS011;6863;48.402;9.994;2022-10-12T03:12:57;31.27;;;23.67;;
13584;SDS011;6863;48.402;9.994;2022-10-12T03:15:23;32.63;;;24.40;;
13584;SDS011;6863;48.402;9.994;2022-10-12T03:17:49;30.93;;;23.23;;
13584;SDS011;6863;48.402;9.994;2022-10-12T03:22:40;28.63;;;22.33;;
13584;SDS011;6863;48.402;9.994;2022-10-12T03:25:07;31.30;;;22.73;;
13584;SDS011;6863;48.402;9.994;2022-10-12T03:27:32;33.70;;;23.93;;
13584;SDS011;6863;48.402;9.994;2022-10-12T03:29:58;35.17;;;22.73;;
13584;SDS011;6863;48.402;9.994;2022-10-12T03:32:23;34.67;;;25.13;;
13584;SDS011;6863;48.402;9.994;2022-10-12T03:34:49;32.77;;;23.03;;
13584;SDS011;6863;48.402;9.994;2022-10-12T03:37:15;29.07;;;23.37;;
13584;SDS011;6863;48.402;9.994;2022-10-12T03:39:40;33.67;;;22.90;;
13584;SDS011;6863;48.402;9.994;2022-10-12T03:42:06;35.57;;;25.27;;
13584;SDS011;6863;48.402;9.994;2022-10-12T03:44:31;32.53;;;24.80;;
13584;SDS011;6863;48.402;9.994;2022-10-12T03:46:57;32.67;;;25.50;;
13584;SDS011;6863;48.402;9.994;2022-10-12T03:49:23;33.17;;;25.87;;
13584;SDS011;6863;48.402;9.994;2022-10-12T03:51:48;32.23;;;24.57;;
13584;SDS011;6863;48.402;9.994;2022-10-12T03:54:14;34.90;;;25.70;;
13584;SDS011;6863;48.402;9.994;2022-10-12T03:56:39;30.63;;;24.13;;
13584;SDS011;6863;48.402;9.994;2022-10-12T03:59:05;37.33;;;25.30;;
13584;SDS011;6863;48.402;9.994;2022-10-12T04:01:30;42.20;;;26.97;;
13584;SDS011;6863;48.402;9.994;2022-10-12T04:03:56;35.40;;;25.70;;
13584;SDS011;6863;48.402;9.994;2022-10-12T04:06:22;35.33;;;26.77;;
13584;SDS011;6863;48.402;9.994;2022-10-12T04:08:47;32.53;;;25.10;;
13584;SDS011;6863;48.402;9.994;2022-10-12T04:11:13;36.63;;;27.47;;
13584;SDS011;6863;48.402;9.994;2022-10-12T04:13:38;35.73;;;25.60;;
13584;SDS011;6863;48.402;9.994;2022-10-12T04:16:05;35.83;;;24.17;;
13584;SDS011;6863;48.402;9.994;2022-10-12T04:18:31;34.23;;;24.97;;
13584;SDS011;6863;48.402;9.994;2022-10-12T04:20:58;36.30;;;26.73;;
13584;SDS011;6863;48.402;9.994;2022-10-12T04:23:24;34.67;;;24.73;;
13584;SDS011;6863;48.402;9.994;2022-10-12T04:25:50;37.00;;;26.87;;
13584;SDS011;6863;48.402;9.994;2022-10-12T04:28:15;35.83;;;27.47;;
13584;SDS011;6863;48.402;9.994;2022-10-12T04:30:41;39.50;;;26.60;;
13584;SDS011;6863;48.402;9.994;2022-10-12T04:33:06;35.33;;;26.13;;
13584;SDS011;6863;48.402;9.994;2022-10-12T04:35:32;36.50;;;25.03;;
13584;SDS011;6863;48.402;9.994;2022-10-12T04:37:58;35.30;;;25.20;;
13584;SDS011;6863;48.402;9.994;2022-10-12T04:40:23;36.67;;;26.73;;
13584;SDS011;6863;48.402;9.994;2022-10-12T04:42:49;38.93;;;28.07;;
13584;SDS011;6863;48.402;9.994;2022-10-12T04:45:14;36.63;;;27.30;;
13584;SDS011;6863;48.402;9.994;2022-10-12T04:47:40;35.63;;;27.40;;
13584;SDS011;6863;48.402;9.994;2022-10-12T04:50:06;34.47;;;27.27;;
13584;SDS011;6863;48.402;9.994;2022-10-12T04:52:32;36.43;;;27.77;;
13584;SDS011;6863;48.402;9.994;2022-10-12T04:54:57;37.33;;;27.97;;
13584;SDS011;6863;48.402;9.994;2022-10-12T04:57:23;32.43;;;25.23;;
13584;SDS011;6863;48.402;9.994;2022-10-12T04:59:49;38.33;;;27.30;;
13584;SDS011;6863;48.402;9.994;2022-10-12T05:02:14;41.67;;;28.27;;
13584;SDS011;6863;48.402;9.994;2022-10-12T05:04:40;36.83;;;25.57;;
13584;SDS011;6863;48.402;9.994;2022-10-12T05:07:06;33.93;;;25.87;;
13584;SDS011;6863;48.402;9.994;2022-10-12T05:09:31;32.73;;;25.30;;
13584;SDS011;6863;48.402;9.994;2022-10-12T05:11:57;32.97;;;25.60;;
13584;SDS011;6863;48.402;9.994;2022-10-12T05:14:22;35.10;;;25.90;;
13584;SDS011;6863;48.402;9.994;2022-10-12T05:16:48;36.70;;;26.90;;
13584;SDS011;6863;48.402;9.994;2022-10-12T05:19:13;42.67;;;27.77;;
13584;SDS011;6863;48.402;9.994;2022-10-12T05:21:39;40.10;;;27.77;;
13584;SDS011;6863;48.402;9.994;2022-10-12T05:24:06;38.83;;;27.83;;
13584;SDS011;6863;48.402;9.994;2022-10-12T05:26:34;35.60;;;25.83;;
13584;SDS011;6863;48.402;9.994;2022-10-12T05:29:00;38.10;;;27.77;;
13584;SDS011;6863;48.402;9.994;2022-10-12T05:31:26;42.83;;;29.67;;
13584;SDS011;6863;48.402;9.994;2022-10-12T05:33:52;35.83;;;27.83;;
13584;SDS011;6863;48.402;9.994;2022-10-12T05:36:17;42.87;;;29.37;;
13584;SDS011;6863;48.402;9.994;2022-10-12T05:38:46;40.43;;;28.70;;
13584;SDS011;6863;48.402;9.994;2022-10-12T05:41:12;40.10;;;27.43;;
13584;SDS011;6863;48.402;9.994;2022-10-12T05:43:38;41.67;;;28.20;;
13584;SDS011;6863;48.402;9.994;2022-10-12T05:46:04;39.50;;;29.87;;
13584;SDS011;6863;48.402;9.994;2022-10-12T05:48:29;37.87;;;28.37;;
13584;SDS011;6863;48.402;9.994;2022-10-12T05:50:55;41.63;;;29.33;;
13584;SDS011;6863;48.402;9.994;2022-10-12T05:53:21;35.87;;;28.43;;
13584;SDS011;6863;48.402;9.994;2022-10-12T05:55:51;38.53;;;28.20;;
13584;SDS011;6863;48.402;9.994;2022-10-12T05:58:21;39.83;;;28.47;;
13584;SDS011;6863;48.402;9.994;2022-10-12T06:00:47;43.50;;;29.80;;
13584;SDS011;6863;48.402;9.994;2022-10-12T06:03:13;38.50;;;28.33;;
13584;SDS011;6863;48.402;9.994;2022-10-12T06:05:39;37.03;;;28.13;;
13584;SDS011;6863;48.402;9.994;2022-10-12T06:08:05;39.40;;;26.47;;
13584;SDS011;6863;48.402;9.994;2022-10-12T06:10:32;41.70;;;28.90;;
13584;SDS011;6863;48.402;9.994;2022-10-12T06:12:59;35.50;;;26.63;;
13584;SDS011;6863;48.402;9.994;2022-10-12T06:15:25;38.83;;;26.07;;
13584;SDS011;6863;48.402;9.994;2022-10-12T06:17:50;38.40;;;28.40;;
13584;SDS011;6863;48.402;9.994;2022-10-12T06:20:16;39.83;;;28.17;;
13584;SDS011;6863;48.402;9.994;2022-10-12T06:22:41;37.93;;;28.53;;
13584;SDS011;6863;48.402;9.994;2022-10-12T06:25:07;35.57;;;27.90;;
13584;SDS011;6863;48.402;9.994;2022-10-12T06:27:32;36.57;;;27.03;;
13584;SDS011;6863;48.402;9.994;2022-10-12T06:29:58;36.80;;;28.27;;
13584;SDS011;6863;48.402;9.994;2022-10-12T06:32:24;36.30;;;27.43;;
13584;SDS011;6863;48.402;9.994;2022-10-12T06:34:49;47.03;;;29.53;;
13584;SDS011;6863;48.402;9.994;2022-10-12T06:37:15;37.57;;;28.67;;
13584;SDS011;6863;48.402;9.994;2022-10-12T06:39:40;32.63;;;25.80;;
13584;SDS011;6863;48.402;9.994;2022-10-12T06:42:06;38.20;;;28.43;;
13584;SDS011;6863;48.402;9.994;2022-10-12T06:44:33;35.80;;;27.20;;
13584;SDS011;6863;48.402;9.994;2022-10-12T06:46:58;37.57;;;27.70;;
13584;SDS011;6863;48.402;9.994;2022-10-12T06:49:24;40.00;;;28.23;;
13584;SDS011;6863;48.402;9.994;2022-10-12T06:51:49;40.57;;;28.43;;
13584;SDS011;6863;48.402;9.994;2022-10-12T06:54:15;36.30;;;27.77;;
13584;SDS011;6863;48.402;9.994;2022-10-12T06:56:41;31.33;;;25.13;;
13584;SDS011;6863;48.402;9.994;2022-10-12T06:59:07;36.90;;;27.87;;
13584;SDS011;6863;48.402;9.994;2022-10-12T07:01:35;37.27;;;26.90;;
13584;SDS011;6863;48.402;9.994;2022-10-12T07:04:01;34.50;;;26.57;;
13584;SDS011;6863;48.402;9.994;2022-10-12T07:06:26;35.13;;;26.67;;
13584;SDS011;6863;48.402;9.994;2022-10-12T07:08:52;36.43;;;27.77;;
13584;SDS011;6863;48.402;9.994;2022-10-12T07:11:19;36.63;;;27.20;;
13584;SDS011;6863;48.402;9.994;2022-10-12T07:13:44;34.93;;;25.00;;
13584;SDS011;6863;48.402;9.994;2022-10-12T07:16:10;32.47;;;24.73;;
13584;SDS011;6863;48.402;9.994;2022-10-12T07:18:35;32.80;;;25.57;;
13584;SDS011;6863;48.402;9.994;2022-10-12T07:21:01;28.83;;;23.83;;
13584;SDS011;6863;48.402;9.994;2022-10-12T07:23:28;33.67;;;25.57;;
13584;SDS011;6863;48.402;9.994;2022-10-12T07:25:55;31.37;;;25.00;;
13584;SDS011;6863;48.402;9.994;2022-10-12T07:28:21;35.20;;;27.87;;
13584;SDS011;6863;48.402;9.994;2022-10-12T07:30:47;38.93;;;29.00;;
13584;SDS011;6863;48.402;9.994;2022-10-12T07:33:13;33.87;;;27.20;;
13584;SDS011;6863;48.402;9.994;2022-10-12T07:35:38;33.27;;;24.60;;
13584;SDS011;6863;48.402;9.994;2022-10-12T07:38:04;34.80;;;25.90;;
13584;SDS011;6863;48.402;9.994;2022-10-12T07:40:30;30.10;;;25.73;;
13584;SDS011;6863;48.402;9.994;2022-10-12T07:42:56;35.33;;;25.60;;
13584;SDS011;6863;48.402;9.994;2022-10-12T07:45:22;35.77;;;26.57;;
13584;SDS011;6863;48.402;9.994;2022-10-12T07:47:48;30.33;;;25.10;;
13584;SDS011;6863;48.402;9.994;2022-10-12T07:50:14;36.43;;;28.73;;
13584;SDS011;6863;48.402;9.994;2022-10-12T07:52:39;34.37;;;27.10;;
13584;SDS011;6863;48.402;9.994;2022-10-12T07:55:05;33.97;;;27.30;;
13584;SDS011;6863;48.402;9.994;2022-10-12T07:57:31;36.83;;;26.07;;
13584;SDS011;6863;48.402;9.994;2022-10-12T07:59:57;29.43;;;23.13;;
13584;SDS011;6863;48.402;9.994;2022-10-12T08:02:23;34.93;;;26.57;;
13584;SDS011;6863;48.402;9.994;2022-10-12T08:04:48;48.60;;;37.03;;
13584;SDS011;6863;48.402;9.994;2022-10-12T08:07:14;36.67;;;28.87;;
13584;SDS011;6863;48.402;9.994;2022-10-12T08:09:39;55.10;;;39.57;;
13584;SDS011;6863;48.402;9.994;2022-10-12T08:12:05;32.50;;;26.47;;
13584;SDS011;6863;48.402;9.994;2022-10-12T08:14:31;31.17;;;25.50;;
13584;SDS011;6863;48.402;9.994;2022-10-12T08:16:57;32.17;;;25.40;;
13584;SDS011;6863;48.402;9.994;2022-10-12T08:19:22;31.60;;;24.43;;
13584;SDS011;6863;48.402;9.994;2022-10-12T08:21:48;33.57;;;23.90;;
13584;SDS011;6863;48.402;9.994;2022-10-12T08:24:14;28.67;;;22.30;;
13584;SDS011;6863;48.402;9.994;2022-10-12T08:26:40;40.47;;;29.97;;
13584;SDS011;6863;48.402;9.994;2022-10-12T08:29:05;30.67;;;24.02;;
13584;SDS011;6863;48.402;9.994;2022-10-12T08:31:32;29.57;;;24.33;;
13584;SDS011;6863;48.402;9.994;2022-10-12T08:33:58;28.40;;;23.10;;
13584;SDS011;6863;48.402;9.994;2022-10-12T08:36:24;27.98;;;23.02;;
13584;SDS011;6863;48.402;9.994;2022-10-12T08:38:50;28.50;;;23.20;;
13584;SDS011;6863;48.402;9.994;2022-10-12T08:46:43;25.42;;;21.10;;
13584;SDS011;6863;48.402;9.994;2022-10-12T08:49:19;26.67;;;22.55;;
13584;SDS011;6863;48.402;9.994;2022-10-12T08:51:48;30.52;;;23.95;;
13584;SDS011;6863;48.402;9.994;2022-10-12T08:54:18;30.90;;;23.08;;
13584;SDS011;6863;48.402;9.994;2022-10-12T08:56:46;30.27;;;24.33;;
13584;SDS011;6863;48.402;9.994;2022-10-12T08:59:13;35.47;;;24.90;;
13584;SDS011;6863;48.402;9.994;2022-10-12T09:01:55;32.28;;;26.30;;
13584;SDS011;6863;48.402;9.994;2022-10-12T09:07:34;32.58;;;26.30;;
13584;SDS011;6863;48.402;9.994;2022-10-12T09:16:00;34.55;;;27.52;;
13584;SDS011;6863;48.402;9.994;2022-10-12T09:21:04;29.73;;;24.23;;
13584;SDS011;6863;48.402;9.994;2022-10-12T09:23:37;28.67;;;21.13;;
13584;SDS011;6863;48.402;9.994;2022-10-12T09:28:50;30.43;;;23.57;;
13584;SDS011;6863;48.402;9.994;2022-10-12T09:34:03;26.33;;;21.07;;
13584;SDS011;6863;48.402;9.994;2022-10-12T09:36:32;28.50;;;20.83;;
13584;SDS011;6863;48.402;9.994;2022-10-12T09:39:01;24.27;;;18.67;;
13584;SDS011;6863;48.402;9.994;2022-10-12T09:41:32;25.53;;;17.63;;
13584;SDS011;6863;48.402;9.994;2022-10-12T09:44:00;24.53;;;17.87;;
13584;SDS011;6863;48.402;9.994;2022-10-12T09:49:44;26.93;;;19.50;;
13584;SDS011;6863;48.402;9.994;2022-10-12T09:52:14;28.53;;;19.40;;
13584;SDS011;6863;48.402;9.994;2022-10-12T09:54:52;26.80;;;19.07;;
13584;SDS011;6863;48.402;9.994;2022-10-12T09:57:24;24.17;;;19.27;;
13584;SDS011;6863;48.402;9.994;2022-10-12T09:59:52;21.93;;;17.90;;
13584;SDS011;6863;48.402;9.994;2022-10-12T10:02:19;23.30;;;17.90;;
13584;SDS011;6863;48.402;9.994;2022-10-12T10:04:47;25.17;;;20.08;;
13584;SDS011;6863;48.402;9.994;2022-10-12T10:09:46;20.30;;;16.13;;
13584;SDS011;6863;48.402;9.994;2022-10-12T10:12:20;22.40;;;17.05;;
13584;SDS011;6863;48.402;9.994;2022-10-12T10:14:48;32.83;;;26.63;;
13584;SDS011;6863;48.402;9.994;2022-10-12T10:17:17;19.73;;;16.60;;
13584;SDS011;6863;48.402;9.994;2022-10-12T10:19:58;18.48;;;16.27;;
13584;SDS011;6863;48.402;9.994;2022-10-12T10:22:45;21.13;;;15.65;;
13584;SDS011;6863;48.402;9.994;2022-10-12T10:25:18;17.83;;;15.55;;
13584;SDS011;6863;48.402;9.994;2022-10-12T10:27:46;19.10;;;14.13;;
13584;SDS011;6863;48.402;9.994;2022-10-12T10:32:41;18.42;;;14.57;;
13584;SDS011;6863;48.402;9.994;2022-10-12T10:37:37;16.65;;;14.85;;
13584;SDS011;6863;48.402;9.994;2022-10-12T10:40:19;17.90;;;15.30;;
13584;SDS011;6863;48.402;9.994;2022-10-12T10:42:48;22.15;;;16.35;;
13584;SDS011;6863;48.402;9.994;2022-10-12T10:45:26;19.40;;;16.23;;
13584;SDS011;6863;48.402;9.994;2022-10-12T10:47:54;20.13;;;15.38;;
13584;SDS011;6863;48.402;9.994;2022-10-12T10:50:36;18.83;;;15.23;;
13584;SDS011;6863;48.402;9.994;2022-10-12T10:53:05;17.65;;;14.35;;
13584;SDS011;6863;48.402;9.994;2022-10-12T11:00:57;16.83;;;14.35;;
13584;SDS011;6863;48.402;9.994;2022-10-12T11:03:30;15.40;;;12.75;;
13584;SDS011;6863;48.402;9.994;2022-10-12T11:06:14;17.08;;;14.80;;
13584;SDS011;6863;48.402;9.994;2022-10-12T11:08:51;18.25;;;14.55;;
13584;SDS011;6863;48.402;9.994;2022-10-12T11:11:25;19.38;;;15.73;;
13584;SDS011;6863;48.402;9.994;2022-10-12T11:13:58;17.70;;;14.05;;
13584;SDS011;6863;48.402;9.994;2022-10-12T11:19:16;17.42;;;14.57;;
13584;SDS011;6863;48.402;9.994;2022-10-12T11:21:51;19.95;;;13.98;;
13584;SDS011;6863;48.402;9.994;2022-10-12T11:24:31;17.92;;;14.38;;
13584;SDS011;6863;48.402;9.994;2022-10-12T11:27:21;17.55;;;14.55;;
13584;SDS011;6863;48.402;9.994;2022-10-12T11:30:00;21.75;;;17.23;;
13584;SDS011;6863;48.402;9.994;2022-10-12T11:32:31;19.50;;;14.35;;
13584;SDS011;6863;48.402;9.994;2022-10-12T11:35:02;20.95;;;14.50;;
13584;SDS011;6863;48.402;9.994;2022-10-12T11:37:41;16.83;;;13.85;;
13584;SDS011;6863;48.402;9.994;2022-10-12T11:40:17;17.63;;;12.68;;
13584;SDS011;6863;48.402;9.994;2022-10-12T11:42:47;15.02;;;12.50;;
13584;SDS011;6863;48.402;9.994;2022-10-12T11:45:49;19.20;;;13.38;;
13584;SDS011;6863;48.402;9.994;2022-10-12T11:48:16;15.27;;;13.45;;
13584;SDS011;6863;48.402;9.994;2022-10-12T11:50:47;18.80;;;14.02;;
13584;SDS011;6863;48.402;9.994;2022-10-12T11:55:47;15.43;;;12.90;;
13584;SDS011;6863;48.402;9.994;2022-10-12T11:58:20;16.40;;;13.05;;
13584;SDS011;6863;48.402;9.994;2022-10-12T12:03:29;16.60;;;12.40;;
13584;SDS011;6863;48.402;9.994;2022-10-12T12:09:18;15.02;;;12.23;;
13584;SDS011;6863;48.402;9.994;2022-10-12T12:12:05;19.27;;;14.35;;
13584;SDS011;6863;48.402;9.994;2022-10-12T12:14:39;23.10;;;15.95;;
13584;SDS011;6863;48.402;9.994;2022-10-12T12:19:41;15.07;;;13.45;;
13584;SDS011;6863;48.402;9.994;2022-10-12T12:27:55;15.60;;;12.18;;
13584;SDS011;6863;48.402;9.994;2022-10-12T12:30:29;16.40;;;12.52;;
13584;SDS011;6863;48.402;9.994;2022-10-12T12:35:52;14.40;;;12.32;;
13584;SDS011;6863;48.402;9.994;2022-10-12T12:38:33;15.15;;;12.65;;
13584;SDS011;6863;48.402;9.994;2022-10-12T12:41:05;14.10;;;11.65;;
13584;SDS011;6863;48.402;9.994;2022-10-12T12:43:36;13.77;;;11.40;;
13584;SDS011;6863;48.402;9.994;2022-10-12T12:46:13;12.80;;;10.18;;
13584;SDS011;6863;48.402;9.994;2022-10-12T12:56:21;13.40;;;11.63;;
13584;SDS011;6863;48.402;9.994;2022-10-12T13:05:02;16.52;;;11.80;;
13584;SDS011;6863;48.402;9.994;2022-10-12T13:10:43;17.58;;;12.43;;
13584;SDS011;6863;48.402;9.994;2022-10-12T13:13:33;12.90;;;11.52;;
13584;SDS011;6863;48.402;9.994;2022-10-12T13:18:50;13.80;;;12.40;;
13584;SDS011;6863;48.402;9.994;2022-10-12T13:21:25;15.50;;;13.45;;
13584;SDS011;6863;48.402;9.994;2022-10-12T13:24:00;34.20;;;23.60;;
13584;SDS011;6863;48.402;9.994;2022-10-12T13:26:34;23.83;;;19.50;;
13584;SDS011;6863;48.402;9.994;2022-10-12T13:29:01;17.02;;;13.10;;
13584;SDS011;6863;48.402;9.994;2022-10-12T13:31:33;18.67;;;12.63;;
13584;SDS011;6863;48.402;9.994;2022-10-12T13:36:51;13.63;;;11.05;;
13584;SDS011;6863;48.402;9.994;2022-10-12T13:39:25;11.90;;;10.70;;
13584;SDS011;6863;48.402;9.994;2022-10-12T13:41:56;13.13;;;10.27;;
13584;SDS011;6863;48.402;9.994;2022-10-12T13:44:31;14.57;;;12.05;;
13584;SDS011;6863;48.402;9.994;2022-10-12T13:47:00;15.27;;;10.25;;
13584;SDS011;6863;48.402;9.994;2022-10-12T13:54:38;13.35;;;10.43;;
13584;SDS011;6863;48.402;9.994;2022-10-12T13:57:05;10.75;;;9.40;;
13584;SDS011;6863;48.402;9.994;2022-10-12T13:59:41;14.02;;;10.30;;
13584;SDS011;6863;48.402;9.994;2022-10-12T14:02:17;12.07;;;9.50;;
13584;SDS011;6863;48.402;9.994;2022-10-12T14:04:47;14.80;;;10.05;;
13584;SDS011;6863;48.402;9.994;2022-10-12T14:07:20;14.52;;;10.07;;
13584;SDS011;6863;48.402;9.994;2022-10-12T14:10:02;13.43;;;9.57;;
13584;SDS011;6863;48.402;9.994;2022-10-12T14:12:37;12.20;;;10.05;;
13584;SDS011;6863;48.402;9.994;2022-10-12T14:15:04;12.15;;;8.95;;
13584;SDS011;6863;48.402;9.994;2022-10-12T14:17:31;13.55;;;10.48;;
13584;SDS011;6863;48.402;9.994;2022-10-12T14:22:35;14.02;;;10.43;;
13584;SDS011;6863;48.402;9.994;2022-10-12T14:25:13;12.15;;;10.52;;
13584;SDS011;6863;48.402;9.994;2022-10-12T14:27:44;10.65;;;9.55;;
13584;SDS011;6863;48.402;9.994;2022-10-12T14:30:23;13.35;;;10.45;;
13584;SDS011;6863;48.402;9.994;2022-10-12T14:32:53;14.35;;;11.13;;
13584;SDS011;6863;48.402;9.994;2022-10-12T14:35:21;13.80;;;10.63;;
13584;SDS011;6863;48.402;9.994;2022-10-12T14:37:52;12.93;;;9.93;;
13584;SDS011;6863;48.402;9.994;2022-10-12T14:42:58;12.65;;;10.02;;
13584;SDS011;6863;48.402;9.994;2022-10-12T14:45:34;12.77;;;9.60;;
13584;SDS011;6863;48.402;9.994;2022-10-12T14:48:00;10.77;;;9.07;;
13584;SDS011;6863;48.402;9.994;2022-10-12T14:50:27;12.57;;;10.40;;
13584;SDS011;6863;48.402;9.994;2022-10-12T14:52:55;11.00;;;9.57;;
13584;SDS011;6863;48.402;9.994;2022-10-12T14:55:23;15.15;;;10.02;;
13584;SDS011;6863;48.402;9.994;2022-10-12T14:57:51;12.20;;;10.18;;
13584;SDS011;6863;48.402;9.994;2022-10-12T15:00:17;15.18;;;10.55;;
13584;SDS011;6863;48.402;9.994;2022-10-12T15:02:48;11.30;;;9.75;;
13584;SDS011;6863;48.402;9.994;2022-10-12T15:05:15;13.55;;;10.77;;
13584;SDS011;6863;48.402;9.994;2022-10-12T15:07:43;11.88;;;10.43;;
13584;SDS011;6863;48.402;9.994;2022-10-12T15:10:10;15.77;;;11.23;;
13584;SDS011;6863;48.402;9.994;2022-10-12T15:12:39;15.10;;;9.38;;
13584;SDS011;6863;48.402;9.994;2022-10-12T15:17:43;11.50;;;9.15;;
13584;SDS011;6863;48.402;9.994;2022-10-12T15:22:39;14.70;;;10.13;;
13584;SDS011;6863;48.402;9.994;2022-10-12T15:25:11;14.77;;;10.65;;
13584;SDS011;6863;48.402;9.994;2022-10-12T15:27:48;12.23;;;10.90;;
13584;SDS011;6863;48.402;9.994;2022-10-12T15:30:14;13.85;;;10.77;;
13584;SDS011;6863;48.402;9.994;2022-10-12T15:32:40;12.85;;;11.45;;
13584;SDS011;6863;48.402;9.994;2022-10-12T15:35:12;16.45;;;11.80;;
13584;SDS011;6863;48.402;9.994;2022-10-12T15:37:41;12.90;;;11.20;;
13584;SDS011;6863;48.402;9.994;2022-10-12T15:40:08;17.00;;;10.95;;
13584;SDS011;6863;48.402;9.994;2022-10-12T15:42:35;15.82;;;12.00;;
13584;SDS011;6863;48.402;9.994;2022-10-12T15:45:07;14.05;;;11.02;;
13584;SDS011;6863;48.402;9.994;2022-10-12T15:47:42;13.32;;;10.70;;
13584;SDS011;6863;48.402;9.994;2022-10-12T15:50:08;11.70;;;10.57;;
13584;SDS011;6863;48.402;9.994;2022-10-12T15:52:34;15.40;;;10.23;;
13584;SDS011;6863;48.402;9.994;2022-10-12T15:54:59;17.25;;;12.38;;
13584;SDS011;6863;48.402;9.994;2022-10-12T15:57:25;16.63;;;12.40;;
13584;SDS011;6863;48.402;9.994;2022-10-12T15:59:50;13.68;;;11.88;;
13584;SDS011;6863;48.402;9.994;2022-10-12T16:02:17;14.07;;;12.15;;
13584;SDS011;6863;48.402;9.994;2022-10-12T16:04:43;15.82;;;12.43;;
13584;SDS011;6863;48.402;9.994;2022-10-12T16:07:09;14.32;;;12.48;;
13584;SDS011;6863;48.402;9.994;2022-10-12T16:09:34;17.10;;;12.80;;
13584;SDS011;6863;48.402;9.994;2022-10-12T16:12:00;17.38;;;13.00;;
13584;SDS011;6863;48.402;9.994;2022-10-12T16:14:26;18.25;;;13.00;;
13584;SDS011;6863;48.402;9.994;2022-10-12T16:16:51;17.67;;;13.50;;
13584;SDS011;6863;48.402;9.994;2022-10-12T16:19:17;14.80;;;12.80;;
13584;SDS011;6863;48.402;9.994;2022-10-12T16:21:45;15.70;;;14.02;;
13584;SDS011;6863;48.402;9.994;2022-10-12T16:24:11;19.85;;;14.13;;
13584;SDS011;6863;48.402;9.994;2022-10-12T16:26:36;18.85;;;14.43;;
13584;SDS011;6863;48.402;9.994;2022-10-12T16:29:02;18.15;;;14.15;;
13584;SDS011;6863;48.402;9.994;2022-10-12T16:31:28;16.73;;;14.48;;
13584;SDS011;6863;48.402;9.994;2022-10-12T16:33:53;19.00;;;15.00;;
13584;SDS011;6863;48.402;9.994;2022-10-12T16:36:19;18.77;;;14.63;;
13584;SDS011;6863;48.402;9.994;2022-10-12T16:38:44;18.90;;;16.80;;
13584;SDS011;6863;48.402;9.994;2022-10-12T16:41:11;19.43;;;15.07;;
13584;SDS011;6863;48.402;9.994;2022-10-12T16:43:40;19.10;;;14.83;;
13584;SDS011;6863;48.402;9.994;2022-10-12T16:46:06;17.70;;;14.90;;
13584;SDS011;6863;48.402;9.994;2022-10-12T16:48:33;19.57;;;14.90;;
13584;SDS011;6863;48.402;9.994;2022-10-12T16:50:59;19.03;;;14.57;;